OMD4FS EGHI-EIDW
Flight info
| Callsign | OMD4FS |
|---|---|
| Flight time | N/A |
| Altitude | 24000 |
| Route | PEPIS Y321 NUBRI/N0499F300 N14 HEKXA Q63 SAWPE/N0477F240 Q63 OZZIL N80 ARPAK L9 NICXI M17 VATRY VATRY3R |
| Aircraft | C750/M-SBDE3FGHRWXY/S |
Departure
| Time | 2026-05-06 21:16 |
|---|---|
| Airport | Southampton Airport (EGHI) |
Arrival
| Time | N/A |
|---|---|
| Airport | Dublin Airport (EIDW) |
| Time | Latitude | Longitude | Altitude | Speed | Heading |
|---|---|---|---|---|---|
| 2026-05-06 20:15 | 50.95140 | -1.35960 | 45 ft | 0 kts | 289° |
| 2026-05-06 20:50 | 50.95138 | -1.35949 | 45 ft | 4 kts | 291° |
| 2026-05-06 20:50 | 50.95126 | -1.35912 | 45 ft | 4 kts | 314° |
| 2026-05-06 20:51 | 50.95106 | -1.35893 | 45 ft | 4 kts | 11° |
| 2026-05-06 20:51 | 50.95097 | -1.35897 | 45 ft | 1 kts | 19° |
| 2026-05-06 20:51 | 50.95096 | -1.35897 | 45 ft | 0 kts | 19° |
| 2026-05-06 20:54 | 50.95102 | -1.35896 | 45 ft | 0 kts | 10° |
| 2026-05-06 20:54 | 50.95104 | -1.35902 | 45 ft | 0 kts | 300° |
| 2026-05-06 20:55 | 50.95099 | -1.35904 | 45 ft | 0 kts | 199° |
| 2026-05-06 21:07 | 50.95094 | -1.35902 | 45 ft | 0 kts | 180° |
| 2026-05-06 21:07 | 50.95090 | -1.35904 | 45 ft | 0 kts | 192° |
| 2026-05-06 21:12 | 50.95072 | -1.35910 | 46 ft | 6 kts | 193° |
| 2026-05-06 21:12 | 50.95034 | -1.35932 | 46 ft | 6 kts | 200° |
| 2026-05-06 21:12 | 50.94988 | -1.35957 | 45 ft | 9 kts | 200° |
| 2026-05-06 21:12 | 50.94927 | -1.35992 | 44 ft | 9 kts | 199° |
| 2026-05-06 21:13 | 50.94866 | -1.36024 | 44 ft | 9 kts | 199° |
| 2026-05-06 21:13 | 50.94805 | -1.36059 | 42 ft | 10 kts | 202° |
| 2026-05-06 21:13 | 50.94733 | -1.36106 | 39 ft | 13 kts | 200° |
| 2026-05-06 21:13 | 50.94646 | -1.36145 | 37 ft | 13 kts | 180° |
| 2026-05-06 21:14 | 50.94594 | -1.36104 | 36 ft | 4 kts | 131° |
| 2026-05-06 21:14 | 50.94577 | -1.36038 | 36 ft | 11 kts | 109° |
| 2026-05-06 21:14 | 50.94534 | -1.35946 | 35 ft | 10 kts | 187° |
| 2026-05-06 21:14 | 50.94472 | -1.35985 | 35 ft | 11 kts | 200° |
| 2026-05-06 21:15 | 50.94374 | -1.36041 | 32 ft | 17 kts | 199° |
| 2026-05-06 21:15 | 50.94307 | -1.36042 | 34 ft | 5 kts | 214° |
| 2026-05-06 21:15 | 50.94322 | -1.36069 | 33 ft | 7 kts | 353° |
| 2026-05-06 21:15 | 50.94529 | -1.35954 | 35 ft | 80 kts | 18° |
| 2026-05-06 21:16 | 50.95315 | -1.35537 | 163 ft | 135 kts | 19° |
| 2026-05-06 21:16 | 50.96176 | -1.35049 | 808 ft | 135 kts | 21° |
| 2026-05-06 21:16 | 50.97050 | -1.34590 | 1575 ft | 130 kts | 15° |
| 2026-05-06 21:16 | 50.97911 | -1.34354 | 2283 ft | 122 kts | 10° |
| 2026-05-06 21:17 | 50.98764 | -1.34132 | 2780 ft | 128 kts | 11° |
| 2026-05-06 21:17 | 50.99667 | -1.33813 | 3148 ft | 138 kts | 14° |
| 2026-05-06 21:17 | 51.00613 | -1.33349 | 3512 ft | 146 kts | 17° |
| 2026-05-06 21:17 | 51.01600 | -1.32793 | 3903 ft | 156 kts | 19° |
| 2026-05-06 21:18 | 51.02648 | -1.32159 | 4358 ft | 162 kts | 21° |
| 2026-05-06 21:18 | 51.03657 | -1.31483 | 4968 ft | 161 kts | 20° |
| 2026-05-06 21:18 | 51.04845 | -1.30869 | 4993 ft | 197 kts | 10° |
| 2026-05-06 21:18 | 51.06293 | -1.30467 | 5160 ft | 224 kts | 9° |
| 2026-05-06 21:19 | 51.07893 | -1.29876 | 5340 ft | 248 kts | 14° |
| 2026-05-06 21:19 | 51.09619 | -1.29053 | 5654 ft | 263 kts | 16° |
| 2026-05-06 21:19 | 51.11368 | -1.28200 | 6343 ft | 262 kts | 15° |
| 2026-05-06 21:19 | 51.13136 | -1.27388 | 6872 ft | 266 kts | 14° |
| 2026-05-06 21:20 | 51.14929 | -1.26570 | 7419 ft | 269 kts | 14° |
| 2026-05-06 21:20 | 51.16739 | -1.25730 | 7952 ft | 272 kts | 15° |
| 2026-05-06 21:20 | 51.18547 | -1.24887 | 8479 ft | 275 kts | 15° |
| 2026-05-06 21:20 | 51.20433 | -1.24257 | 8956 ft | 278 kts | 4° |
| 2026-05-06 21:21 | 51.22366 | -1.24129 | 9560 ft | 279 kts | 1° |
| 2026-05-06 21:21 | 51.24324 | -1.24011 | 10118 ft | 283 kts | 2° |
| 2026-05-06 21:21 | 51.26368 | -1.23839 | 10185 ft | 304 kts | 2° |
| 2026-05-06 21:21 | 51.28550 | -1.23644 | 10206 ft | 323 kts | 2° |
| 2026-05-06 21:22 | 51.30850 | -1.23458 | 10228 ft | 339 kts | 2° |
| 2026-05-06 21:22 | 51.33225 | -1.23339 | 10513 ft | 342 kts | 358° |
| 2026-05-06 21:22 | 51.35527 | -1.24234 | 10838 ft | 342 kts | 339° |
| 2026-05-06 21:22 | 51.37720 | -1.25593 | 11242 ft | 342 kts | 338° |
| 2026-05-06 21:23 | 51.39960 | -1.26948 | 11604 ft | 345 kts | 339° |
| 2026-05-06 21:23 | 51.42221 | -1.28290 | 11969 ft | 346 kts | 339° |
| 2026-05-06 21:23 | 51.44481 | -1.29651 | 12339 ft | 348 kts | 339° |
| 2026-05-06 21:23 | 51.46756 | -1.31036 | 12711 ft | 350 kts | 339° |
| 2026-05-06 21:24 | 51.49038 | -1.32442 | 13060 ft | 351 kts | 337° |
| 2026-05-06 21:24 | 51.51026 | -1.34552 | 13586 ft | 346 kts | 317° |
| 2026-05-06 21:24 | 51.52451 | -1.37609 | 14183 ft | 341 kts | 298° |
| 2026-05-06 21:24 | 51.53299 | -1.41147 | 14815 ft | 335 kts | 289° |
| 2026-05-06 21:25 | 51.54042 | -1.44665 | 15486 ft | 330 kts | 289° |
| 2026-05-06 21:25 | 51.54779 | -1.48140 | 16155 ft | 327 kts | 289° |
| 2026-05-06 21:25 | 51.55518 | -1.51586 | 16835 ft | 324 kts | 289° |
| 2026-05-06 21:25 | 51.56247 | -1.54999 | 17518 ft | 322 kts | 289° |
| 2026-05-06 21:26 | 51.56971 | -1.58409 | 18220 ft | 320 kts | 289° |
| 2026-05-06 21:26 | 51.57685 | -1.61779 | 18844 ft | 318 kts | 289° |
| 2026-05-06 21:26 | 51.58375 | -1.65112 | 19455 ft | 317 kts | 286° |
| 2026-05-06 21:26 | 51.58731 | -1.68606 | 20061 ft | 316 kts | 276° |
| 2026-05-06 21:27 | 51.58954 | -1.72116 | 20717 ft | 315 kts | 276° |
| 2026-05-06 21:27 | 51.59196 | -1.75634 | 21391 ft | 315 kts | 277° |
| 2026-05-06 21:27 | 51.59460 | -1.79099 | 22069 ft | 314 kts | 277° |
| 2026-05-06 21:27 | 51.59710 | -1.82458 | 22753 ft | 300 kts | 277° |
| 2026-05-06 21:28 | 51.59948 | -1.85797 | 23457 ft | 301 kts | 277° |
| 2026-05-06 21:28 | 51.60187 | -1.89159 | 23976 ft | 305 kts | 277° |
| 2026-05-06 21:28 | 51.60403 | -1.92165 | 23998 ft | 324 kts | 277° |
| 2026-05-06 21:28 | 51.60668 | -1.95865 | 24191 ft | 336 kts | 277° |
| 2026-05-06 21:29 | 51.60917 | -1.99384 | 25762 ft | 287 kts | 276° |